sensor_id;sensor_type;location;lat;lon;timestamp;P1;durP1;ratioP1;P2;durP2;ratioP2
74620;SDS011;64861;47.546;19.254;2023-03-23T00:01:53;20.70;;;12.90;;
74620;SDS011;64861;47.546;19.254;2023-03-23T00:04:19;19.45;;;11.40;;
74620;SDS011;64861;47.546;19.254;2023-03-23T00:06:45;17.70;;;11.10;;
74620;SDS011;64861;47.546;19.254;2023-03-23T00:09:12;18.65;;;11.30;;
74620;SDS011;64861;47.546;19.254;2023-03-23T00:11:40;17.48;;;11.10;;
74620;SDS011;64861;47.546;19.254;2023-03-23T00:14:08;18.25;;;11.68;;
74620;SDS011;64861;47.546;19.254;2023-03-23T00:16:38;19.33;;;11.68;;
74620;SDS011;64861;47.546;19.254;2023-03-23T00:19:09;19.85;;;11.63;;
74620;SDS011;64861;47.546;19.254;2023-03-23T00:21:40;19.02;;;11.65;;
74620;SDS011;64861;47.546;19.254;2023-03-23T00:24:16;18.70;;;11.40;;
74620;SDS011;64861;47.546;19.254;2023-03-23T00:26:43;18.73;;;11.25;;
74620;SDS011;64861;47.546;19.254;2023-03-23T00:29:15;20.90;;;11.88;;
74620;SDS011;64861;47.546;19.254;2023-03-23T00:31:42;24.98;;;11.45;;
74620;SDS011;64861;47.546;19.254;2023-03-23T00:34:11;16.55;;;10.77;;
74620;SDS011;64861;47.546;19.254;2023-03-23T00:36:48;18.08;;;10.48;;
74620;SDS011;64861;47.546;19.254;2023-03-23T00:39:15;18.40;;;10.48;;
74620;SDS011;64861;47.546;19.254;2023-03-23T00:41:44;17.50;;;10.55;;
74620;SDS011;64861;47.546;19.254;2023-03-23T00:44:11;18.70;;;10.70;;
74620;SDS011;64861;47.546;19.254;2023-03-23T00:46:42;18.55;;;11.25;;
74620;SDS011;64861;47.546;19.254;2023-03-23T00:49:12;20.88;;;10.50;;
74620;SDS011;64861;47.546;19.254;2023-03-23T00:51:39;16.13;;;10.18;;
74620;SDS011;64861;47.546;19.254;2023-03-23T00:54:05;16.73;;;10.40;;
74620;SDS011;64861;47.546;19.254;2023-03-23T00:56:31;16.27;;;10.35;;
74620;SDS011;64861;47.546;19.254;2023-03-23T00:58:56;15.77;;;10.10;;
74620;SDS011;64861;47.546;19.254;2023-03-23T01:01:22;15.15;;;10.02;;
74620;SDS011;64861;47.546;19.254;2023-03-23T01:03:47;16.40;;;10.38;;
74620;SDS011;64861;47.546;19.254;2023-03-23T01:06:14;16.33;;;9.75;;
74620;SDS011;64861;47.546;19.254;2023-03-23T01:08:41;15.18;;;9.60;;
74620;SDS011;64861;47.546;19.254;2023-03-23T01:11:11;16.55;;;9.40;;
74620;SDS011;64861;47.546;19.254;2023-03-23T01:13:39;14.98;;;9.35;;
74620;SDS011;64861;47.546;19.254;2023-03-23T01:16:05;16.00;;;9.38;;
74620;SDS011;64861;47.546;19.254;2023-03-23T01:18:31;14.68;;;9.80;;
74620;SDS011;64861;47.546;19.254;2023-03-23T01:20:57;15.93;;;9.25;;
74620;SDS011;64861;47.546;19.254;2023-03-23T01:23:22;17.42;;;9.73;;
74620;SDS011;64861;47.546;19.254;2023-03-23T01:25:48;15.57;;;9.43;;
74620;SDS011;64861;47.546;19.254;2023-03-23T01:28:14;14.15;;;9.27;;
74620;SDS011;64861;47.546;19.254;2023-03-23T01:30:40;14.27;;;9.38;;
74620;SDS011;64861;47.546;19.254;2023-03-23T01:33:06;14.25;;;8.77;;
74620;SDS011;64861;47.546;19.254;2023-03-23T01:35:31;15.63;;;8.95;;
74620;SDS011;64861;47.546;19.254;2023-03-23T01:37:57;14.05;;;8.98;;
74620;SDS011;64861;47.546;19.254;2023-03-23T01:40:22;14.73;;;9.45;;
74620;SDS011;64861;47.546;19.254;2023-03-23T01:42:48;12.68;;;8.77;;
74620;SDS011;64861;47.546;19.254;2023-03-23T01:47:48;14.38;;;9.00;;
74620;SDS011;64861;47.546;19.254;2023-03-23T01:50:18;15.85;;;9.10;;
74620;SDS011;64861;47.546;19.254;2023-03-23T01:52:45;16.00;;;9.07;;
74620;SDS011;64861;47.546;19.254;2023-03-23T01:55:11;15.23;;;8.73;;
74620;SDS011;64861;47.546;19.254;2023-03-23T01:57:37;13.23;;;8.77;;
74620;SDS011;64861;47.546;19.254;2023-03-23T02:00:04;14.50;;;9.25;;
74620;SDS011;64861;47.546;19.254;2023-03-23T02:02:43;14.13;;;9.25;;
74620;SDS011;64861;47.546;19.254;2023-03-23T02:05:13;15.95;;;8.85;;
74620;SDS011;64861;47.546;19.254;2023-03-23T02:07:44;14.00;;;8.80;;
74620;SDS011;64861;47.546;19.254;2023-03-23T02:10:11;13.88;;;8.48;;
74620;SDS011;64861;47.546;19.254;2023-03-23T02:12:37;12.95;;;8.57;;
74620;SDS011;64861;47.546;19.254;2023-03-23T02:15:02;13.02;;;8.48;;
74620;SDS011;64861;47.546;19.254;2023-03-23T02:20:47;14.38;;;8.38;;
74620;SDS011;64861;47.546;19.254;2023-03-23T02:23:06;13.77;;;8.07;;
74620;SDS011;64861;47.546;19.254;2023-03-23T02:31:41;14.15;;;8.43;;
74620;SDS011;64861;47.546;19.254;2023-03-23T02:34:18;13.98;;;8.07;;
74620;SDS011;64861;47.546;19.254;2023-03-23T02:36:52;14.13;;;8.05;;
74620;SDS011;64861;47.546;19.254;2023-03-23T02:39:32;12.65;;;8.43;;
74620;SDS011;64861;47.546;19.254;2023-03-23T02:42:04;12.55;;;7.72;;
74620;SDS011;64861;47.546;19.254;2023-03-23T02:44:32;13.07;;;8.07;;
74620;SDS011;64861;47.546;19.254;2023-03-23T02:47:02;11.77;;;7.50;;
74620;SDS011;64861;47.546;19.254;2023-03-23T02:49:29;11.55;;;7.15;;
74620;SDS011;64861;47.546;19.254;2023-03-23T02:51:58;12.20;;;7.40;;
74620;SDS011;64861;47.546;19.254;2023-03-23T02:54:26;13.13;;;7.57;;
74620;SDS011;64861;47.546;19.254;2023-03-23T02:56:53;14.02;;;8.45;;
74620;SDS011;64861;47.546;19.254;2023-03-23T02:59:20;13.10;;;7.65;;
74620;SDS011;64861;47.546;19.254;2023-03-23T03:01:57;12.70;;;7.78;;
74620;SDS011;64861;47.546;19.254;2023-03-23T03:04:24;13.45;;;7.57;;
74620;SDS011;64861;47.546;19.254;2023-03-23T03:06:58;12.38;;;7.55;;
74620;SDS011;64861;47.546;19.254;2023-03-23T03:12:08;11.32;;;7.03;;
74620;SDS011;64861;47.546;19.254;2023-03-23T03:17:41;9.90;;;6.72;;
74620;SDS011;64861;47.546;19.254;2023-03-23T03:20:14;11.13;;;7.20;;
74620;SDS011;64861;47.546;19.254;2023-03-23T03:22:41;11.25;;;6.90;;
74620;SDS011;64861;47.546;19.254;2023-03-23T03:25:10;13.63;;;7.43;;
74620;SDS011;64861;47.546;19.254;2023-03-23T03:27:38;12.55;;;7.38;;
74620;SDS011;64861;47.546;19.254;2023-03-23T03:30:06;11.63;;;7.15;;
74620;SDS011;64861;47.546;19.254;2023-03-23T03:32:38;11.23;;;7.38;;
74620;SDS011;64861;47.546;19.254;2023-03-23T03:35:11;11.10;;;7.00;;
74620;SDS011;64861;47.546;19.254;2023-03-23T03:37:37;12.25;;;6.70;;
74620;SDS011;64861;47.546;19.254;2023-03-23T03:40:06;11.00;;;6.85;;
74620;SDS011;64861;47.546;19.254;2023-03-23T03:42:39;12.18;;;7.05;;
74620;SDS011;64861;47.546;19.254;2023-03-23T03:45:10;10.65;;;6.60;;
74620;SDS011;64861;47.546;19.254;2023-03-23T03:47:37;10.10;;;6.50;;
74620;SDS011;64861;47.546;19.254;2023-03-23T03:50:03;9.85;;;6.07;;
74620;SDS011;64861;47.546;19.254;2023-03-23T03:52:29;9.80;;;6.18;;
74620;SDS011;64861;47.546;19.254;2023-03-23T03:54:54;10.60;;;6.28;;
74620;SDS011;64861;47.546;19.254;2023-03-23T03:57:21;11.48;;;6.55;;
74620;SDS011;64861;47.546;19.254;2023-03-23T03:59:47;10.02;;;6.43;;
74620;SDS011;64861;47.546;19.254;2023-03-23T04:02:13;10.63;;;6.28;;
74620;SDS011;64861;47.546;19.254;2023-03-23T04:04:41;9.98;;;6.10;;
74620;SDS011;64861;47.546;19.254;2023-03-23T04:07:08;10.15;;;6.43;;
74620;SDS011;64861;47.546;19.254;2023-03-23T04:09:36;9.82;;;5.85;;
74620;SDS011;64861;47.546;19.254;2023-03-23T04:12:03;11.50;;;6.03;;
74620;SDS011;64861;47.546;19.254;2023-03-23T04:14:29;10.30;;;6.45;;
74620;SDS011;64861;47.546;19.254;2023-03-23T04:16:55;10.70;;;6.50;;
74620;SDS011;64861;47.546;19.254;2023-03-23T04:19:25;9.23;;;5.80;;
74620;SDS011;64861;47.546;19.254;2023-03-23T04:21:53;10.20;;;5.85;;
74620;SDS011;64861;47.546;19.254;2023-03-23T04:24:18;10.75;;;6.13;;
74620;SDS011;64861;47.546;19.254;2023-03-23T04:26:46;9.05;;;5.95;;
74620;SDS011;64861;47.546;19.254;2023-03-23T04:29:12;9.32;;;5.88;;
74620;SDS011;64861;47.546;19.254;2023-03-23T04:31:38;10.18;;;6.18;;
74620;SDS011;64861;47.546;19.254;2023-03-23T04:34:04;8.77;;;5.72;;
74620;SDS011;64861;47.546;19.254;2023-03-23T04:36:30;9.70;;;5.82;;
74620;SDS011;64861;47.546;19.254;2023-03-23T04:38:59;9.40;;;6.10;;
74620;SDS011;64861;47.546;19.254;2023-03-23T04:41:25;9.25;;;5.82;;
74620;SDS011;64861;47.546;19.254;2023-03-23T04:43:50;8.93;;;6.00;;
74620;SDS011;64861;47.546;19.254;2023-03-23T04:46:18;8.45;;;5.45;;
74620;SDS011;64861;47.546;19.254;2023-03-23T04:48:44;10.45;;;6.05;;
74620;SDS011;64861;47.546;19.254;2023-03-23T04:51:10;8.50;;;5.82;;
74620;SDS011;64861;47.546;19.254;2023-03-23T04:53:39;9.13;;;5.90;;
74620;SDS011;64861;47.546;19.254;2023-03-23T04:56:06;8.45;;;5.50;;
74620;SDS011;64861;47.546;19.254;2023-03-23T04:58:32;9.20;;;5.88;;
74620;SDS011;64861;47.546;19.254;2023-03-23T05:01:00;8.68;;;5.32;;
74620;SDS011;64861;47.546;19.254;2023-03-23T05:03:26;8.45;;;5.30;;
74620;SDS011;64861;47.546;19.254;2023-03-23T05:05:53;7.95;;;5.13;;
74620;SDS011;64861;47.546;19.254;2023-03-23T05:08:20;8.85;;;5.43;;
74620;SDS011;64861;47.546;19.254;2023-03-23T05:10:51;8.35;;;5.22;;
74620;SDS011;64861;47.546;19.254;2023-03-23T05:13:17;8.93;;;5.32;;
74620;SDS011;64861;47.546;19.254;2023-03-23T05:15:43;8.10;;;5.05;;
74620;SDS011;64861;47.546;19.254;2023-03-23T05:18:08;9.18;;;5.32;;
74620;SDS011;64861;47.546;19.254;2023-03-23T05:20:35;8.45;;;5.18;;
74620;SDS011;64861;47.546;19.254;2023-03-23T05:23:00;10.70;;;5.43;;
74620;SDS011;64861;47.546;19.254;2023-03-23T05:25:26;8.05;;;5.05;;
74620;SDS011;64861;47.546;19.254;2023-03-23T05:27:52;8.55;;;5.00;;
74620;SDS011;64861;47.546;19.254;2023-03-23T05:30:19;9.93;;;5.20;;
74620;SDS011;64861;47.546;19.254;2023-03-23T05:32:46;9.68;;;5.50;;
74620;SDS011;64861;47.546;19.254;2023-03-23T05:35:15;8.32;;;4.95;;
74620;SDS011;64861;47.546;19.254;2023-03-23T05:37:42;8.65;;;5.10;;
74620;SDS011;64861;47.546;19.254;2023-03-23T05:40:09;7.95;;;4.55;;
74620;SDS011;64861;47.546;19.254;2023-03-23T05:42:36;7.97;;;5.07;;
74620;SDS011;64861;47.546;19.254;2023-03-23T05:45:03;8.70;;;4.82;;
74620;SDS011;64861;47.546;19.254;2023-03-23T05:47:29;14.45;;;4.95;;
74620;SDS011;64861;47.546;19.254;2023-03-23T05:49:55;8.73;;;5.20;;
74620;SDS011;64861;47.546;19.254;2023-03-23T05:52:21;10.15;;;4.90;;
74620;SDS011;64861;47.546;19.254;2023-03-23T05:54:49;8.75;;;5.00;;
74620;SDS011;64861;47.546;19.254;2023-03-23T05:57:14;8.90;;;4.60;;
74620;SDS011;64861;47.546;19.254;2023-03-23T05:59:40;8.23;;;4.90;;
74620;SDS011;64861;47.546;19.254;2023-03-23T06:02:05;9.63;;;4.97;;
74620;SDS011;64861;47.546;19.254;2023-03-23T06:04:31;7.97;;;4.78;;
74620;SDS011;64861;47.546;19.254;2023-03-23T06:06:58;7.47;;;4.40;;
74620;SDS011;64861;47.546;19.254;2023-03-23T06:09:25;9.90;;;4.80;;
74620;SDS011;64861;47.546;19.254;2023-03-23T06:11:51;11.13;;;4.47;;
74620;SDS011;64861;47.546;19.254;2023-03-23T06:14:16;9.30;;;4.53;;
74620;SDS011;64861;47.546;19.254;2023-03-23T06:16:42;9.07;;;4.65;;
74620;SDS011;64861;47.546;19.254;2023-03-23T06:19:08;7.57;;;4.30;;
74620;SDS011;64861;47.546;19.254;2023-03-23T06:21:33;10.82;;;5.03;;
74620;SDS011;64861;47.546;19.254;2023-03-23T06:23:59;9.05;;;4.20;;
74620;SDS011;64861;47.546;19.254;2023-03-23T06:26:28;8.20;;;4.40;;
74620;SDS011;64861;47.546;19.254;2023-03-23T06:29:02;10.32;;;4.32;;
74620;SDS011;64861;47.546;19.254;2023-03-23T06:31:35;11.82;;;5.20;;
74620;SDS011;64861;47.546;19.254;2023-03-23T06:34:07;16.20;;;4.38;;
74620;SDS011;64861;47.546;19.254;2023-03-23T06:36:34;9.25;;;4.63;;
74620;SDS011;64861;47.546;19.254;2023-03-23T06:38:59;25.65;;;4.95;;
74620;SDS011;64861;47.546;19.254;2023-03-23T06:41:26;15.63;;;5.15;;
74620;SDS011;64861;47.546;19.254;2023-03-23T06:43:51;19.33;;;5.38;;
74620;SDS011;64861;47.546;19.254;2023-03-23T06:46:17;19.73;;;4.60;;
74620;SDS011;64861;47.546;19.254;2023-03-23T06:48:42;16.23;;;4.70;;
74620;SDS011;64861;47.546;19.254;2023-03-23T06:51:08;23.98;;;5.40;;
74620;SDS011;64861;47.546;19.254;2023-03-23T06:53:33;17.45;;;5.18;;
74620;SDS011;64861;47.546;19.254;2023-03-23T06:55:59;15.90;;;4.90;;
74620;SDS011;64861;47.546;19.254;2023-03-23T06:58:25;20.42;;;4.85;;
74620;SDS011;64861;47.546;19.254;2023-03-23T07:00:54;12.13;;;4.65;;
74620;SDS011;64861;47.546;19.254;2023-03-23T07:03:24;19.98;;;5.55;;
74620;SDS011;64861;47.546;19.254;2023-03-23T07:05:51;16.48;;;5.07;;
74620;SDS011;64861;47.546;19.254;2023-03-23T07:08:16;13.93;;;4.97;;
74620;SDS011;64861;47.546;19.254;2023-03-23T07:10:42;17.05;;;5.13;;
74620;SDS011;64861;47.546;19.254;2023-03-23T07:13:08;17.20;;;4.70;;
74620;SDS011;64861;47.546;19.254;2023-03-23T07:15:35;23.35;;;5.15;;
74620;SDS011;64861;47.546;19.254;2023-03-23T07:18:00;16.75;;;5.05;;
74620;SDS011;64861;47.546;19.254;2023-03-23T07:20:26;13.57;;;4.53;;
74620;SDS011;64861;47.546;19.254;2023-03-23T07:22:53;16.27;;;4.80;;
74620;SDS011;64861;47.546;19.254;2023-03-23T07:25:18;17.45;;;4.65;;
74620;SDS011;64861;47.546;19.254;2023-03-23T07:27:47;18.80;;;5.40;;
74620;SDS011;64861;47.546;19.254;2023-03-23T07:30:13;23.67;;;4.43;;
74620;SDS011;64861;47.546;19.254;2023-03-23T07:32:40;14.40;;;4.50;;
74620;SDS011;64861;47.546;19.254;2023-03-23T07:35:07;10.45;;;4.20;;
74620;SDS011;64861;47.546;19.254;2023-03-23T07:37:34;13.10;;;4.30;;
74620;SDS011;64861;47.546;19.254;2023-03-23T07:40:01;12.20;;;3.95;;
74620;SDS011;64861;47.546;19.254;2023-03-23T07:42:39;11.70;;;4.43;;
74620;SDS011;64861;47.546;19.254;2023-03-23T07:45:06;11.02;;;4.50;;
74620;SDS011;64861;47.546;19.254;2023-03-23T07:47:32;12.40;;;4.10;;
74620;SDS011;64861;47.546;19.254;2023-03-23T07:49:57;12.02;;;4.22;;
74620;SDS011;64861;47.546;19.254;2023-03-23T07:52:23;9.30;;;3.75;;
74620;SDS011;64861;47.546;19.254;2023-03-23T07:54:48;12.38;;;4.30;;
74620;SDS011;64861;47.546;19.254;2023-03-23T07:57:14;13.00;;;4.07;;
74620;SDS011;64861;47.546;19.254;2023-03-23T07:59:39;11.15;;;4.00;;
74620;SDS011;64861;47.546;19.254;2023-03-23T08:02:08;12.90;;;4.63;;
74620;SDS011;64861;47.546;19.254;2023-03-23T08:04:35;12.68;;;4.05;;
74620;SDS011;64861;47.546;19.254;2023-03-23T08:07:02;10.85;;;4.13;;
74620;SDS011;64861;47.546;19.254;2023-03-23T08:09:29;9.75;;;4.20;;
74620;SDS011;64861;47.546;19.254;2023-03-23T08:11:55;9.75;;;3.70;;
74620;SDS011;64861;47.546;19.254;2023-03-23T08:14:21;8.98;;;3.40;;
74620;SDS011;64861;47.546;19.254;2023-03-23T08:16:46;8.70;;;4.10;;
74620;SDS011;64861;47.546;19.254;2023-03-23T08:19:13;10.95;;;3.80;;
74620;SDS011;64861;47.546;19.254;2023-03-23T08:21:38;8.85;;;3.97;;
74620;SDS011;64861;47.546;19.254;2023-03-23T08:24:04;16.15;;;4.15;;
74620;SDS011;64861;47.546;19.254;2023-03-23T08:26:31;7.93;;;3.55;;
74620;SDS011;64861;47.546;19.254;2023-03-23T08:28:56;9.32;;;3.50;;
74620;SDS011;64861;47.546;19.254;2023-03-23T08:31:22;9.60;;;3.42;;
74620;SDS011;64861;47.546;19.254;2023-03-23T08:33:48;12.25;;;4.03;;
74620;SDS011;64861;47.546;19.254;2023-03-23T08:36:14;7.20;;;3.58;;
74620;SDS011;64861;47.546;19.254;2023-03-23T08:38:40;12.07;;;4.50;;
74620;SDS011;64861;47.546;19.254;2023-03-23T08:41:06;7.45;;;3.47;;
74620;SDS011;64861;47.546;19.254;2023-03-23T08:43:32;8.00;;;3.60;;
74620;SDS011;64861;47.546;19.254;2023-03-23T08:45:59;8.27;;;3.70;;
74620;SDS011;64861;47.546;19.254;2023-03-23T08:48:25;11.23;;;3.78;;
74620;SDS011;64861;47.546;19.254;2023-03-23T08:50:51;11.73;;;3.50;;
74620;SDS011;64861;47.546;19.254;2023-03-23T08:53:17;8.55;;;3.95;;
74620;SDS011;64861;47.546;19.254;2023-03-23T08:55:43;8.15;;;3.30;;
74620;SDS011;64861;47.546;19.254;2023-03-23T08:58:09;8.27;;;3.92;;
74620;SDS011;64861;47.546;19.254;2023-03-23T09:00:35;8.77;;;3.60;;
74620;SDS011;64861;47.546;19.254;2023-03-23T09:03:00;7.03;;;3.33;;
74620;SDS011;64861;47.546;19.254;2023-03-23T09:05:27;6.90;;;3.38;;
74620;SDS011;64861;47.546;19.254;2023-03-23T09:07:54;9.00;;;3.65;;
74620;SDS011;64861;47.546;19.254;2023-03-23T09:10:24;10.05;;;3.50;;
74620;SDS011;64861;47.546;19.254;2023-03-23T09:12:53;8.02;;;3.67;;
74620;SDS011;64861;47.546;19.254;2023-03-23T09:15:20;6.72;;;3.35;;
74620;SDS011;64861;47.546;19.254;2023-03-23T09:17:46;7.45;;;3.00;;
74620;SDS011;64861;47.546;19.254;2023-03-23T09:20:14;10.38;;;3.35;;
74620;SDS011;64861;47.546;19.254;2023-03-23T09:22:43;7.40;;;3.22;;
74620;SDS011;64861;47.546;19.254;2023-03-23T09:25:12;11.82;;;3.28;;
74620;SDS011;64861;47.546;19.254;2023-03-23T09:27:41;10.05;;;3.13;;
74620;SDS011;64861;47.546;19.254;2023-03-23T09:30:07;13.35;;;3.30;;
74620;SDS011;64861;47.546;19.254;2023-03-23T09:32:35;10.60;;;3.58;;
74620;SDS011;64861;47.546;19.254;2023-03-23T09:35:02;16.10;;;3.33;;
74620;SDS011;64861;47.546;19.254;2023-03-23T09:37:28;9.10;;;3.13;;
74620;SDS011;64861;47.546;19.254;2023-03-23T09:39:54;8.32;;;3.00;;
74620;SDS011;64861;47.546;19.254;2023-03-23T09:48:10;7.68;;;3.05;;
74620;SDS011;64861;47.546;19.254;2023-03-23T09:54:05;7.60;;;2.95;;
74620;SDS011;64861;47.546;19.254;2023-03-23T09:56:45;6.45;;;3.25;;
74620;SDS011;64861;47.546;19.254;2023-03-23T10:01:46;6.82;;;3.08;;
74620;SDS011;64861;47.546;19.254;2023-03-23T10:06:46;6.65;;;2.95;;
74620;SDS011;64861;47.546;19.254;2023-03-23T10:09:14;7.38;;;3.08;;
74620;SDS011;64861;47.546;19.254;2023-03-23T10:14:51;7.07;;;2.55;;
74620;SDS011;64861;47.546;19.254;2023-03-23T10:22:33;8.07;;;2.85;;
74620;SDS011;64861;47.546;19.254;2023-03-23T10:27:44;5.80;;;2.70;;
74620;SDS011;64861;47.546;19.254;2023-03-23T10:33:13;8.48;;;2.63;;
74620;SDS011;64861;47.546;19.254;2023-03-23T10:35:47;6.15;;;2.92;;
74620;SDS011;64861;47.546;19.254;2023-03-23T10:38:25;6.32;;;2.70;;
74620;SDS011;64861;47.546;19.254;2023-03-23T10:41:14;5.45;;;2.47;;
74620;SDS011;64861;47.546;19.254;2023-03-23T10:43:41;6.53;;;2.72;;
74620;SDS011;64861;47.546;19.254;2023-03-23T10:51:34;5.15;;;2.63;;
74620;SDS011;64861;47.546;19.254;2023-03-23T10:54:02;5.68;;;2.22;;
74620;SDS011;64861;47.546;19.254;2023-03-23T10:56:37;5.70;;;2.55;;
74620;SDS011;64861;47.546;19.254;2023-03-23T10:59:15;6.35;;;2.60;;
74620;SDS011;64861;47.546;19.254;2023-03-23T11:01:53;5.53;;;2.38;;
74620;SDS011;64861;47.546;19.254;2023-03-23T11:04:21;5.63;;;2.40;;
74620;SDS011;64861;47.546;19.254;2023-03-23T11:06:49;6.88;;;2.40;;
74620;SDS011;64861;47.546;19.254;2023-03-23T11:09:20;4.88;;;2.20;;
74620;SDS011;64861;47.546;19.254;2023-03-23T11:11:53;9.38;;;2.30;;
74620;SDS011;64861;47.546;19.254;2023-03-23T11:16:59;5.85;;;2.40;;
74620;SDS011;64861;47.546;19.254;2023-03-23T11:24:30;11.30;;;2.22;;
74620;SDS011;64861;47.546;19.254;2023-03-23T11:26:58;8.07;;;2.35;;
74620;SDS011;64861;47.546;19.254;2023-03-23T11:29:24;8.30;;;2.40;;
74620;SDS011;64861;47.546;19.254;2023-03-23T11:34:32;6.57;;;2.35;;
74620;SDS011;64861;47.546;19.254;2023-03-23T11:42:33;5.57;;;2.40;;
74620;SDS011;64861;47.546;19.254;2023-03-23T11:50:30;5.05;;;2.30;;
74620;SDS011;64861;47.546;19.254;2023-03-23T11:53:00;5.63;;;2.35;;
74620;SDS011;64861;47.546;19.254;2023-03-23T11:55:30;6.15;;;2.08;;
74620;SDS011;64861;47.546;19.254;2023-03-23T11:58:06;3.97;;;2.13;;
74620;SDS011;64861;47.546;19.254;2023-03-23T12:00:39;5.00;;;2.17;;
74620;SDS011;64861;47.546;19.254;2023-03-23T12:03:11;7.30;;;2.38;;
74620;SDS011;64861;47.546;19.254;2023-03-23T12:11:18;5.97;;;2.20;;
74620;SDS011;64861;47.546;19.254;2023-03-23T12:14:22;5.18;;;2.10;;
74620;SDS011;64861;47.546;19.254;2023-03-23T12:25:16;5.60;;;2.30;;
74620;SDS011;64861;47.546;19.254;2023-03-23T12:27:59;4.60;;;2.20;;
74620;SDS011;64861;47.546;19.254;2023-03-23T12:35:49;5.55;;;1.95;;
74620;SDS011;64861;47.546;19.254;2023-03-23T12:38:38;10.10;;;2.13;;
74620;SDS011;64861;47.546;19.254;2023-03-23T12:41:20;5.55;;;2.10;;
74620;SDS011;64861;47.546;19.254;2023-03-23T12:44:08;4.75;;;2.10;;
74620;SDS011;64861;47.546;19.254;2023-03-23T12:52:11;7.22;;;2.30;;
74620;SDS011;64861;47.546;19.254;2023-03-23T12:54:40;5.13;;;2.25;;
74620;SDS011;64861;47.546;19.254;2023-03-23T12:57:18;4.07;;;2.10;;
74620;SDS011;64861;47.546;19.254;2023-03-23T13:07:53;6.30;;;1.85;;
74620;SDS011;64861;47.546;19.254;2023-03-23T13:10:30;7.60;;;2.15;;
74620;SDS011;64861;47.546;19.254;2023-03-23T13:13:00;6.15;;;1.80;;
74620;SDS011;64861;47.546;19.254;2023-03-23T13:23:34;5.93;;;1.92;;
74620;SDS011;64861;47.546;19.254;2023-03-23T13:26:12;5.18;;;1.98;;
74620;SDS011;64861;47.546;19.254;2023-03-23T13:28:48;4.65;;;1.58;;
74620;SDS011;64861;47.546;19.254;2023-03-23T13:31:23;4.43;;;1.65;;
74620;SDS011;64861;47.546;19.254;2023-03-23T13:33:57;4.68;;;1.83;;
74620;SDS011;64861;47.546;19.254;2023-03-23T13:36:35;4.05;;;1.90;;
74620;SDS011;64861;47.546;19.254;2023-03-23T13:39:06;6.05;;;1.80;;
74620;SDS011;64861;47.546;19.254;2023-03-23T13:41:46;3.38;;;1.55;;
74620;SDS011;64861;47.546;19.254;2023-03-23T13:44:18;4.85;;;1.80;;
74620;SDS011;64861;47.546;19.254;2023-03-23T13:46:54;4.75;;;2.00;;
74620;SDS011;64861;47.546;19.254;2023-03-23T13:49:21;4.05;;;1.67;;
74620;SDS011;64861;47.546;19.254;2023-03-23T13:54:31;5.03;;;1.63;;
74620;SDS011;64861;47.546;19.254;2023-03-23T13:59:58;3.83;;;1.58;;
74620;SDS011;64861;47.546;19.254;2023-03-23T14:02:37;8.85;;;1.83;;
74620;SDS011;64861;47.546;19.254;2023-03-23T14:05:19;5.38;;;2.15;;
74620;SDS011;64861;47.546;19.254;2023-03-23T14:16:44;4.03;;;1.60;;
74620;SDS011;64861;47.546;19.254;2023-03-23T14:21:49;5.43;;;1.63;;
74620;SDS011;64861;47.546;19.254;2023-03-23T14:24:23;3.45;;;1.67;;
74620;SDS011;64861;47.546;19.254;2023-03-23T14:27:02;7.55;;;2.00;;
74620;SDS011;64861;47.546;19.254;2023-03-23T14:29:34;5.45;;;1.60;;
74620;SDS011;64861;47.546;19.254;2023-03-23T14:32:00;3.75;;;1.70;;
74620;SDS011;64861;47.546;19.254;2023-03-23T14:34:28;3.13;;;1.50;;
74620;SDS011;64861;47.546;19.254;2023-03-23T14:36:56;3.22;;;1.50;;
74620;SDS011;64861;47.546;19.254;2023-03-23T14:39:24;4.38;;;1.42;;
74620;SDS011;64861;47.546;19.254;2023-03-23T14:41:52;3.40;;;1.60;;
74620;SDS011;64861;47.546;19.254;2023-03-23T14:44:28;3.72;;;1.80;;
74620;SDS011;64861;47.546;19.254;2023-03-23T14:46:56;4.13;;;1.80;;
74620;SDS011;64861;47.546;19.254;2023-03-23T14:49:31;4.60;;;1.63;;
74620;SDS011;64861;47.546;19.254;2023-03-23T14:52:07;6.50;;;1.60;;
74620;SDS011;64861;47.546;19.254;2023-03-23T14:54:35;6.43;;;1.52;;
74620;SDS011;64861;47.546;19.254;2023-03-23T14:57:48;4.40;;;1.67;;
74620;SDS011;64861;47.546;19.254;2023-03-23T14:59:49;3.75;;;1.35;;
74620;SDS011;64861;47.546;19.254;2023-03-23T15:02:29;5.70;;;1.58;;
74620;SDS011;64861;47.546;19.254;2023-03-23T15:07:32;4.95;;;1.83;;
74620;SDS011;64861;47.546;19.254;2023-03-23T15:10:00;5.33;;;1.57;;
74620;SDS011;64861;47.546;19.254;2023-03-23T15:12:28;3.97;;;1.40;;
74620;SDS011;64861;47.546;19.254;2023-03-23T15:14:59;3.92;;;1.67;;
74620;SDS011;64861;47.546;19.254;2023-03-23T15:17:28;5.20;;;1.50;;
74620;SDS011;64861;47.546;19.254;2023-03-23T15:19:56;4.03;;;1.23;;
74620;SDS011;64861;47.546;19.254;2023-03-23T15:22:24;2.78;;;1.20;;
74620;SDS011;64861;47.546;19.254;2023-03-23T15:25:10;3.80;;;1.52;;
74620;SDS011;64861;47.546;19.254;2023-03-23T15:27:41;3.25;;;1.42;;
74620;SDS011;64861;47.546;19.254;2023-03-23T15:30:51;4.25;;;1.58;;
74620;SDS011;64861;47.546;19.254;2023-03-23T15:33:02;4.05;;;1.65;;
74620;SDS011;64861;47.546;19.254;2023-03-23T15:35:38;5.75;;;1.52;;
74620;SDS011;64861;47.546;19.254;2023-03-23T15:38:14;5.47;;;1.48;;
74620;SDS011;64861;47.546;19.254;2023-03-23T15:40:48;3.22;;;1.30;;
74620;SDS011;64861;47.546;19.254;2023-03-23T15:43:16;3.45;;;1.70;;
74620;SDS011;64861;47.546;19.254;2023-03-23T15:45:58;4.75;;;1.40;;
74620;SDS011;64861;47.546;19.254;2023-03-23T15:48:44;4.63;;;1.42;;
74620;SDS011;64861;47.546;19.254;2023-03-23T15:51:15;3.03;;;1.30;;
74620;SDS011;64861;47.546;19.254;2023-03-23T15:53:42;3.00;;;1.33;;
74620;SDS011;64861;47.546;19.254;2023-03-23T15:56:08;3.10;;;1.30;;
74620;SDS011;64861;47.546;19.254;2023-03-23T15:58:35;2.75;;;1.20;;
74620;SDS011;64861;47.546;19.254;2023-03-23T16:01:04;3.05;;;1.30;;
74620;SDS011;64861;47.546;19.254;2023-03-23T16:03:39;3.13;;;1.35;;
74620;SDS011;64861;47.546;19.254;2023-03-23T16:06:05;4.15;;;1.30;;
74620;SDS011;64861;47.546;19.254;2023-03-23T16:08:34;8.98;;;1.65;;
74620;SDS011;64861;47.546;19.254;2023-03-23T16:11:04;10.50;;;1.50;;
74620;SDS011;64861;47.546;19.254;2023-03-23T16:13:40;6.63;;;1.70;;
74620;SDS011;64861;47.546;19.254;2023-03-23T16:16:09;4.82;;;1.50;;
74620;SDS011;64861;47.546;19.254;2023-03-23T16:18:39;4.60;;;1.45;;
74620;SDS011;64861;47.546;19.254;2023-03-23T16:21:04;5.80;;;1.35;;
74620;SDS011;64861;47.546;19.254;2023-03-23T16:23:31;2.50;;;1.15;;
74620;SDS011;64861;47.546;19.254;2023-03-23T16:25:56;9.45;;;1.52;;
74620;SDS011;64861;47.546;19.254;2023-03-23T16:28:22;9.32;;;1.58;;
74620;SDS011;64861;47.546;19.254;2023-03-23T16:30:47;4.65;;;1.60;;
74620;SDS011;64861;47.546;19.254;2023-03-23T16:33:13;8.73;;;1.73;;
74620;SDS011;64861;47.546;19.254;2023-03-23T16:35:38;11.93;;;2.00;;
74620;SDS011;64861;47.546;19.254;2023-03-23T16:38:04;11.40;;;1.83;;
74620;SDS011;64861;47.546;19.254;2023-03-23T16:40:30;8.85;;;1.80;;
74620;SDS011;64861;47.546;19.254;2023-03-23T16:42:57;22.10;;;1.92;;
74620;SDS011;64861;47.546;19.254;2023-03-23T16:45:22;8.18;;;1.63;;
74620;SDS011;64861;47.546;19.254;2023-03-23T16:47:48;6.60;;;1.60;;
74620;SDS011;64861;47.546;19.254;2023-03-23T16:50:15;8.00;;;1.85;;
74620;SDS011;64861;47.546;19.254;2023-03-23T16:52:42;10.07;;;1.90;;